Time;durP1;ratioP1;P1;durP2;ratioP2;P2;SDS_P1;SDS_P2;PMS_P1;PMS_P2;Temp;Humidity;BMP_temperature;BMP_pressure;BME280_temperature;BME280_humidity;BME280_pressure;Samples;Min_cycle;Max_cycle;Signal;HPM_P1;HPM_P2
2022/03/24 00:00:19;;;;;;;22.50;15.40;;;;;;;12.89;36.34;99944.00;4186801;28;20307;-67
2022/03/24 00:02:20;;;;;;;23.87;16.33;;;;;;;12.98;35.97;99935.00;4186728;28;20298;-68
2022/03/24 00:04:22;;;;;;;25.33;16.83;;;;;;;12.77;36.60;99940.84;4191384;28;20879;-67
2022/03/24 00:06:24;;;;;;;23.93;16.83;;;;;;;12.81;36.42;99931.50;4189118;28;20740;-67
2022/03/24 00:08:26;;;;;;;25.17;16.63;;;;;;;12.79;36.38;99933.50;4183914;28;20263;-67
2022/03/24 00:10:27;;;;;;;21.73;14.93;;;;;;;13.11;36.08;99934.50;4191757;28;20254;-67
2022/03/24 00:12:29;;;;;;;23.03;15.03;;;;;;;12.74;36.46;99935.84;4190859;28;20711;-67
2022/03/24 00:14:30;;;;;;;22.67;15.90;;;;;;;12.92;36.26;99934.84;4190795;28;20310;-67
2022/03/24 00:16:32;;;;;;;23.33;15.00;;;;;;;13.14;36.10;99941.31;4188237;28;20254;-67
2022/03/24 00:18:34;;;;;;;20.47;14.83;;;;;;;13.05;36.03;99942.34;4184816;28;20307;-67
2022/03/24 00:20:37;;;;;;;19.93;14.80;;;;;;;12.67;36.54;99942.84;4191185;28;21717;-67
2022/03/24 00:22:39;;;;;;;19.67;14.10;;;;;;;12.85;36.79;99926.66;4185472;28;20677;-67
2022/03/24 00:24:42;;;;;;;20.20;14.20;;;;;;;12.41;37.11;99917.19;4188668;28;20235;-67
2022/03/24 00:26:43;;;;;;;20.30;14.33;;;;;;;12.70;36.73;99931.03;4193164;28;20326;-67
2022/03/24 00:28:45;;;;;;;19.47;13.83;;;;;;;12.78;36.43;99925.69;4186886;28;20262;-67
2022/03/24 00:30:47;;;;;;;19.20;13.90;;;;;;;12.43;37.06;99927.69;4182715;28;20270;-67
2022/03/24 00:32:49;;;;;;;22.20;14.20;;;;;;;12.32;37.19;99907.53;4191732;28;20234;-67
2022/03/24 00:34:50;;;;;;;17.63;13.10;;;;;;;12.46;37.07;99919.38;4189647;28;20775;-67
2022/03/24 00:36:52;;;;;;;18.47;13.47;;;;;;;12.35;37.33;99919.69;4183427;28;20235;-67
2022/03/24 00:38:55;;;;;;;21.97;15.07;;;;;;;12.41;36.98;99919.84;4187382;28;20874;-67
2022/03/24 00:40:57;;;;;;;17.87;14.33;;;;;;;12.59;37.21;99918.84;4177710;28;20252;-67
2022/03/24 00:42:59;;;;;;;20.17;13.37;;;;;;;12.43;37.23;99925.84;4188564;28;20585;-67
2022/03/24 00:45:01;;;;;;;25.30;14.80;;;;;;;12.55;37.01;99913.00;4185804;28;20318;-67
2022/03/24 00:47:04;;;;;;;19.07;14.60;;;;;;;12.43;37.29;99911.69;4196670;28;20235;-67
2022/03/24 00:49:05;;;;;;;19.30;13.47;;;;;;;12.33;37.52;99905.69;4191736;28;20257;-67
2022/03/24 00:51:07;;;;;;;19.77;13.80;;;;;;;12.17;37.71;99895.84;4176863;28;20267;-67
2022/03/24 00:53:10;;;;;;;17.50;13.40;;;;;;;12.07;37.61;99894.19;4183233;28;20758;-67
2022/03/24 00:55:18;;;;;;;20.07;14.47;;;;;;;12.17;37.77;99888.69;4183208;28;20422;-67
2022/03/24 00:57:20;;;;;;;23.70;15.10;;;;;;;11.70;38.97;99884.78;4182066;28;20852;-66
2022/03/24 00:59:22;;;;;;;21.40;16.50;;;;;;;9.50;44.35;99891.00;4183193;28;20239;-67
2022/03/24 01:01:23;;;;;;;24.77;18.10;;;;;;;9.34;45.56;99867.78;4183280;28;20256;-67
2022/03/24 01:03:25;;;;;;;24.67;16.93;;;;;;;9.51;45.19;99856.34;4180425;28;20235;-67
2022/03/24 01:05:27;;;;;;;23.50;16.93;;;;;;;9.95;44.43;99866.28;4185643;28;20319;-67
2022/03/24 01:07:29;;;;;;;21.47;16.57;;;;;;;9.93;44.81;99859.47;4186116;28;20243;-67
2022/03/24 01:09:31;;;;;;;20.63;15.27;;;;;;;9.52;46.31;99863.34;4192647;28;20843;-67
2022/03/24 01:11:32;;;;;;;22.23;16.83;;;;;;;9.04;45.91;99859.13;4191287;28;20271;-67
2022/03/24 01:13:35;;;;;;;22.87;15.50;;;;;;;8.87;46.45;99854.59;4195569;28;20333;-67
2022/03/24 01:15:37;;;;;;;22.83;15.90;;;;;;;8.57;47.65;99853.84;4187228;28;20696;-67
2022/03/24 01:17:38;;;;;;;22.07;16.40;;;;;;;8.54;47.13;99839.06;4191799;28;20235;-67
2022/03/24 01:19:40;;;;;;;22.67;16.23;;;;;;;8.50;47.78;99832.38;4187356;28;20250;-67
2022/03/24 01:21:42;;;;;;;21.50;15.40;;;;;;;8.68;47.15;99837.78;4185339;28;20262;-67
2022/03/24 01:23:47;;;;;;;23.77;16.50;;;;;;;8.72;47.21;99827.72;4178334;28;20236;-67
2022/03/24 01:25:49;;;;;;;22.27;15.93;;;;;;;9.39;46.29;99815.09;4180314;28;20227;-67
2022/03/24 01:27:51;;;;;;;20.43;16.73;;;;;;;8.70;47.05;99827.03;4191479;28;20319;-67
2022/03/24 01:29:55;;;;;;;21.93;17.03;;;;;;;8.37;47.80;99832.72;4181541;28;20729;-67
2022/03/24 01:31:57;;;;;;;22.07;16.87;;;;;;;8.54;47.02;99820.53;4183345;28;20704;-67
2022/03/24 01:33:59;;;;;;;22.93;15.13;;;;;;;8.62;48.10;99816.31;4187108;28;20232;-68
2022/03/24 01:36:01;;;;;;;23.87;16.23;;;;;;;9.00;46.80;99825.06;4185787;28;20255;-67
2022/03/24 01:38:03;;;;;;;23.07;16.50;;;;;;;8.50;47.35;99820.94;4187194;28;20255;-67
2022/03/24 01:40:06;;;;;;;22.30;16.47;;;;;;;8.69;47.27;99820.03;4184554;28;20732;-67
2022/03/24 01:42:08;;;;;;;27.67;16.57;;;;;;;8.27;47.81;99821.25;4184310;28;20239;-67
2022/03/24 01:44:14;;;;;;;22.47;16.03;;;;;;;8.39;47.41;99817.50;4179484;28;20687;-68
2022/03/24 01:46:21;;;;;;;22.97;16.07;;;;;;;8.80;46.56;99801.31;4197896;28;20281;-67
2022/03/24 01:48:23;;;;;;;18.00;14.17;;;;;;;8.80;47.15;99806.63;4182453;28;22629;-67
2022/03/24 01:50:25;;;;;;;18.40;14.67;;;;;;;8.57;47.63;99806.13;4180136;28;20251;-67
2022/03/24 01:52:28;;;;;;;21.03;15.33;;;;;;;8.44;47.47;99795.00;4185875;28;20224;-67
2022/03/24 01:54:32;;;;;;;23.17;15.33;;;;;;;8.33;47.44;99810.09;4183030;28;20223;-67
2022/03/24 01:56:34;;;;;;;21.20;15.57;;;;;;;9.00;46.42;99780.84;4180669;28;20220;-67
2022/03/24 01:58:38;;;;;;;19.20;14.33;;;;;;;10.34;42.98;99780.88;4180635;28;20259;-67
2022/03/24 02:00:44;;;;;;;20.37;15.93;;;;;;;9.46;44.29;99824.13;4180008;28;20691;-68
2022/03/24 02:02:45;;;;;;;20.37;15.40;;;;;;;8.77;45.99;99814.84;4185491;28;20237;-67
2022/03/24 02:04:48;;;;;;;24.60;15.47;;;;;;;8.69;46.96;99810.28;4186998;28;20294;-67
2022/03/24 02:06:49;;;;;;;21.00;15.63;;;;;;;8.71;46.61;99808.34;4183666;28;20265;-67
2022/03/24 02:08:51;;;;;;;21.00;15.90;;;;;;;8.88;46.25;99812.03;4191336;28;20259;-67
2022/03/24 02:10:53;;;;;;;20.57;14.80;;;;;;;9.01;46.00;99793.09;4188692;28;20243;-67
2022/03/24 02:12:56;;;;;;;20.63;15.07;;;;;;;7.92;48.00;99813.88;4179520;28;20596;-67
2022/03/24 02:14:59;;;;;;;22.10;16.00;;;;;;;8.46;47.27;99790.41;4190338;28;20265;-67
2022/03/24 02:17:01;;;;;;;20.67;14.93;;;;;;;8.32;47.34;99802.28;4192128;28;20239;-67
2022/03/24 02:19:21;;;;;;;19.00;14.57;;;;;;;7.70;47.58;99807.91;4185742;28;20268;-67
2022/03/24 02:21:23;;;;;;;23.67;15.90;;;;;;;7.94;47.82;99790.78;4181223;28;20286;-67
2022/03/24 02:23:26;;;;;;;18.33;13.93;;;;;;;8.23;47.18;99785.41;4183165;28;20627;-67
2022/03/24 02:25:32;;;;;;;18.80;14.63;;;;;;;9.19;45.06;99776.41;4187219;28;20643;-67
2022/03/24 02:27:33;;;;;;;21.60;15.33;;;;;;;9.24;45.08;99782.09;4182142;28;20236;-67
2022/03/24 02:29:36;;;;;;;21.47;14.77;;;;;;;8.63;46.44;99800.28;4182120;28;20262;-67
2022/03/24 02:31:43;;;;;;;24.00;16.63;;;;;;;9.00;46.46;99780.84;4184925;28;20231;-67
2022/03/24 02:33:45;;;;;;;20.97;14.73;;;;;;;8.43;47.13;99804.78;4187945;28;20261;-67
2022/03/24 02:35:47;;;;;;;21.97;15.53;;;;;;;8.80;46.38;99806.63;4187960;28;20310;-67
2022/03/24 02:37:49;;;;;;;21.43;15.57;;;;;;;7.81;48.87;99802.47;4180208;28;20318;-67
2022/03/24 02:39:53;;;;;;;20.10;15.70;;;;;;;7.60;50.01;99797.31;4178943;28;20314;-67
2022/03/24 02:41:58;;;;;;;21.53;15.97;;;;;;;7.16;49.95;99799.50;4186884;28;20247;-68
2022/03/24 02:44:04;;;;;;;20.97;15.60;;;;;;;7.14;51.39;99785.53;4178571;28;20892;-67
2022/03/24 02:46:07;;;;;;;24.40;15.97;;;;;;;7.40;50.10;99790.34;4186054;28;20234;-67
2022/03/24 02:48:09;;;;;;;22.63;15.37;;;;;;;8.33;47.70;99778.31;4190104;28;20234;-67
2022/03/24 02:50:10;;;;;;;21.43;15.83;;;;;;;7.61;49.01;99796.38;4184003;28;20227;-67
2022/03/24 02:52:12;;;;;;;21.33;15.80;;;;;;;7.33;49.55;99794.50;4183713;28;20270;-67
2022/03/24 02:54:14;;;;;;;21.97;15.77;;;;;;;7.95;48.22;99795.94;4187917;28;20223;-67
2022/03/24 02:56:16;;;;;;;20.33;15.40;;;;;;;8.30;47.50;99772.44;4192551;28;20241;-67
2022/03/24 02:58:17;;;;;;;25.17;15.53;;;;;;;8.40;46.11;99792.66;4188463;28;21009;-67
2022/03/24 03:00:20;;;;;;;20.83;15.00;;;;;;;7.53;49.19;99793.56;4175413;28;20254;-66
2022/03/24 03:02:22;;;;;;;18.30;14.90;;;;;;;7.03;50.53;99777.75;4189335;28;20255;-67
2022/03/24 03:04:24;;;;;;;21.13;15.00;;;;;;;7.13;49.87;99789.19;4187741;28;20255;-67
2022/03/24 03:06:26;;;;;;;23.70;15.40;;;;;;;7.09;49.88;99779.81;4181950;28;20234;-66
2022/03/24 03:08:28;;;;;;;21.43;15.67;;;;;;;7.33;50.50;99781.25;4185335;28;20259;-67
2022/03/24 03:10:29;;;;;;;20.13;15.63;;;;;;;7.40;50.00;99766.53;4183842;28;20909;-67
2022/03/24 03:12:31;;;;;;;22.93;16.10;;;;;;;8.82;45.58;99798.53;4186338;28;20253;-68
2022/03/24 03:14:33;;;;;;;20.33;15.30;;;;;;;8.45;46.22;99792.22;4182850;28;20248;-65
2022/03/24 03:16:34;;;;;;;22.60;15.93;;;;;;;9.48;44.55;99769.06;4182458;28;20239;-66
2022/03/24 03:18:36;;;;;;;20.73;15.63;;;;;;;9.82;43.46;99789.66;4185906;28;20274;-65
2022/03/24 03:20:38;;;;;;;20.87;15.30;;;;;;;7.44;48.91;99800.50;4190763;28;20227;-65
2022/03/24 03:22:39;;;;;;;22.47;15.37;;;;;;;6.98;49.81;99793.19;4177384;28;20944;-66
2022/03/24 03:24:41;;;;;;;23.10;15.43;;;;;;;7.05;51.00;99787.19;4176587;28;20263;-66
2022/03/24 03:26:43;;;;;;;21.33;15.57;;;;;;;7.07;50.66;99795.84;4194932;28;20231;-66
2022/03/24 03:28:44;;;;;;;20.50;15.10;;;;;;;6.82;50.22;99802.41;4178615;28;20231;-65
2022/03/24 03:30:47;;;;;;;20.27;15.20;;;;;;;6.72;50.73;99791.81;4178572;28;20672;-66
2022/03/24 03:32:49;;;;;;;23.03;15.27;;;;;;;7.03;51.45;99788.31;4180165;28;20226;-66
2022/03/24 03:34:50;;;;;;;19.73;15.33;;;;;;;7.24;50.04;99790.88;4186308;28;20335;-66
2022/03/24 03:36:56;;;;;;;21.90;14.70;;;;;;;7.05;50.03;99783.72;4177054;28;20231;-66
2022/03/24 03:38:58;;;;;;;19.13;14.30;;;;;;;7.28;49.86;99800.22;4177132;28;20239;-66
2022/03/24 03:41:02;;;;;;;19.20;14.57;;;;;;;7.15;49.48;99803.09;4179362;28;20650;-66
2022/03/24 03:43:03;;;;;;;21.30;16.00;;;;;;;7.10;50.28;99800.84;4173768;28;20227;-66
2022/03/24 03:45:05;;;;;;;22.00;15.17;;;;;;;7.04;50.34;99811.13;4179948;28;20258;-66
2022/03/24 03:47:07;;;;;;;21.77;14.80;;;;;;;7.25;49.64;99803.94;4194789;28;20263;-66
2022/03/24 03:49:10;;;;;;;21.83;15.40;;;;;;;6.75;51.31;99811.84;4185693;28;20226;-66
2022/03/24 03:51:12;;;;;;;21.13;15.53;;;;;;;6.62;50.75;99801.50;4188951;28;20234;-65
2022/03/24 03:53:14;;;;;;;21.63;14.83;;;;;;;6.64;50.88;99802.19;4191799;28;20231;-66
2022/03/24 03:55:16;;;;;;;18.90;15.00;;;;;;;6.45;51.17;99796.81;4192667;28;20314;-66
2022/03/24 03:57:18;;;;;;;22.40;15.00;;;;;;;6.59;50.56;99798.28;4187420;28;21022;-66
2022/03/24 03:59:20;;;;;;;21.87;15.17;;;;;;;6.62;51.35;99788.28;4183413;28;20259;-66
2022/03/24 04:01:22;;;;;;;21.37;13.90;;;;;;;6.75;50.44;99798.63;4183014;28;20271;-66
2022/03/24 04:03:26;;;;;;;23.50;14.83;;;;;;;6.64;50.89;99782.88;4192782;28;20239;-66
2022/03/24 04:05:28;;;;;;;21.10;15.13;;;;;;;8.52;47.11;99776.59;4188022;28;20227;-66
2022/03/24 04:07:29;;;;;;;21.73;14.77;;;;;;;8.14;46.95;99808.31;4193147;28;20322;-66
2022/03/24 04:09:31;;;;;;;22.47;15.77;;;;;;;7.07;50.57;99795.00;4190948;28;20246;-66
2022/03/24 04:11:35;;;;;;;19.97;14.73;;;;;;;6.95;51.14;99806.66;4194189;28;20335;-66
2022/03/24 04:13:39;;;;;;;22.43;14.60;;;;;;;6.70;51.16;99806.09;4184562;28;20248;-66
2022/03/24 04:15:41;;;;;;;20.73;14.93;;;;;;;6.72;50.82;99805.03;4194716;28;20224;-67
2022/03/24 04:17:43;;;;;;;21.23;14.43;;;;;;;6.44;51.43;99803.91;4180312;28;20235;-66
2022/03/24 04:19:44;;;;;;;19.43;14.57;;;;;;;6.68;50.82;99803.59;4195377;28;20312;-66
2022/03/24 04:21:46;;;;;;;20.80;15.17;;;;;;;7.06;49.80;99798.63;4192701;28;20310;-67
2022/03/24 04:23:49;;;;;;;18.50;14.20;;;;;;;6.17;51.50;99807.91;4186346;28;20307;-67
2022/03/24 04:25:51;;;;;;;19.27;14.20;;;;;;;7.04;49.74;99787.34;4164147;28;20390;-66
2022/03/24 04:27:52;;;;;;;20.53;14.93;;;;;;;7.74;48.05;99780.19;4182482;28;20243;-67
2022/03/24 04:29:54;;;;;;;18.03;14.60;;;;;;;8.48;46.54;99791.13;4184324;28;20263;-67
2022/03/24 04:31:56;;;;;;;18.97;14.43;;;;;;;7.96;47.33;99802.88;4184735;28;20246;-67
2022/03/24 04:33:57;;;;;;;20.30;14.03;;;;;;;6.94;49.18;99808.47;4190826;28;20321;-68
2022/03/24 04:35:59;;;;;;;19.50;13.83;;;;;;;6.82;49.69;99813.00;4189572;28;20322;-68
2022/03/24 04:38:04;;;;;;;23.40;14.40;;;;;;;6.98;50.30;99794.00;4188817;28;20233;-68
2022/03/24 04:40:06;;;;;;;21.47;13.50;;;;;;;6.76;50.24;99810.88;4189800;28;20311;-67
2022/03/24 04:42:08;;;;;;;20.07;14.47;;;;;;;7.88;48.28;99784.22;4191707;28;21109;-68
2022/03/24 04:44:10;;;;;;;22.47;15.40;;;;;;;7.95;47.21;99816.25;4188024;28;20266;-68
2022/03/24 04:46:12;;;;;;;20.47;14.30;;;;;;;7.38;48.77;99800.22;4188042;28;20251;-68
2022/03/24 04:48:13;;;;;;;20.57;14.80;;;;;;;8.08;46.70;99808.84;4188835;28;20234;-67
2022/03/24 04:50:17;;;;;;;20.03;14.10;;;;;;;7.88;46.86;99831.03;4186646;28;20311;-67
2022/03/24 04:52:19;;;;;;;25.37;15.37;;;;;;;7.81;46.92;99830.75;4181634;28;20249;-66
2022/03/24 04:54:20;;;;;;;25.03;17.30;;;;;;;9.25;44.17;99820.91;4178857;28;20930;-67
2022/03/24 04:56:22;;;;;;;23.30;15.73;;;;;;;9.91;42.78;99822.44;4192330;28;20229;-67
2022/03/24 04:58:24;;;;;;;21.80;15.77;;;;;;;9.87;42.64;99831.69;4179583;28;20236;-67
2022/03/24 05:02:35;;;;;;;21.13;16.43;;;;;;;8.87;44.97;99817.47;4187746;27;21304;-67
2022/03/24 05:04:37;;;;;;;19.77;14.60;;;;;;;9.17;44.02;99836.75;4171938;28;20758;-67
2022/03/24 05:06:38;;;;;;;21.47;15.17;;;;;;;9.49;43.69;99836.28;4170346;28;20268;-68
2022/03/24 05:08:40;;;;;;;23.03;15.80;;;;;;;9.54;43.20;99857.91;4167906;28;20303;-68
2022/03/24 05:10:43;;;;;;;21.37;14.73;;;;;;;9.24;44.10;99851.09;4169822;28;20254;-67
2022/03/24 05:12:44;;;;;;;20.10;15.17;;;;;;;8.34;45.89;99851.53;4170052;28;20242;-68
2022/03/24 05:14:50;;;;;;;22.07;16.00;;;;;;;6.33;51.36;99854.16;4166015;28;20233;-67
2022/03/24 05:16:51;;;;;;;21.60;16.53;;;;;;;6.01;52.69;99852.38;4185036;28;20637;-67
2022/03/24 05:18:53;;;;;;;23.13;16.43;;;;;;;6.14;52.85;99841.66;4168804;28;20271;-68
2022/03/24 05:20:55;;;;;;;21.60;15.83;;;;;;;7.71;48.66;99824.63;4199134;28;20233;-68
2022/03/24 05:22:57;;;;;;;21.10;15.77;;;;;;;7.53;49.13;99827.97;4194888;28;20232;-67
2022/03/24 05:24:58;;;;;;;20.53;15.63;;;;;;;8.34;46.53;99840.06;4193912;28;20270;-67
2022/03/24 05:27:00;;;;;;;26.07;16.30;;;;;;;9.32;44.27;99851.19;4200020;27;20239;-67
2022/03/24 05:29:01;;;;;;;21.83;16.13;;;;;;;9.41;43.73;99855.59;4194923;28;20250;-66
2022/03/24 05:31:03;;;;;;;21.93;15.93;;;;;;;9.17;44.55;99856.16;4195539;28;20236;-66
2022/03/24 05:33:05;;;;;;;24.10;17.47;;;;;;;9.34;44.03;99862.47;4196561;28;20267;-67
2022/03/24 05:35:08;;;;;;;22.37;16.10;;;;;;;9.51;43.60;99866.16;4202589;28;20254;-67
2022/03/24 05:37:10;;;;;;;23.00;16.10;;;;;;;8.82;44.72;99892.16;4199773;27;20270;-67
2022/03/24 05:39:12;;;;;;;23.33;15.97;;;;;;;7.06;49.21;99897.28;4196562;28;20257;-67
2022/03/24 05:41:14;;;;;;;23.93;16.67;;;;;;;5.69;52.60;99884.91;4195267;28;20338;-68
2022/03/24 05:43:15;;;;;;;24.33;15.17;;;;;;;6.10;53.19;99879.84;4197116;28;20285;-68
2022/03/24 05:45:17;;;;;;;21.17;15.60;;;;;;;6.32;51.68;99866.53;4201172;27;20242;-66
2022/03/24 05:47:19;;;;;;;21.30;15.33;;;;;;;8.39;46.80;99859.06;4198197;27;20228;-67
2022/03/24 05:49:21;;;;;;;20.17;15.40;;;;;;;8.93;45.20;99868.13;4200088;27;20230;-68
2022/03/24 05:51:26;;;;;;;22.23;15.47;;;;;;;8.48;46.17;99873.25;4198543;28;20724;-68
2022/03/24 05:53:28;;;;;;;20.53;15.73;;;;;;;6.83;50.61;99890.47;4197974;28;20238;-68
2022/03/24 05:55:30;;;;;;;21.30;17.00;;;;;;;6.60;50.76;99876.56;4199884;27;20244;-66
2022/03/24 05:57:31;;;;;;;20.63;15.87;;;;;;;7.03;50.48;99880.84;4194769;27;20354;-66
2022/03/24 05:59:33;;;;;;;24.77;17.33;;;;;;;6.47;52.35;99876.78;4202237;27;20276;-67
2022/03/24 06:01:35;;;;;;;25.67;15.97;;;;;;;6.60;52.67;99884.50;4200281;28;20234;-68
2022/03/24 06:03:37;;;;;;;22.03;16.37;;;;;;;6.45;52.98;99876.91;4201138;28;20272;-67
2022/03/24 06:05:40;;;;;;;24.87;15.90;;;;;;;6.80;52.07;99865.13;4201644;28;20265;-67
2022/03/24 06:07:42;;;;;;;24.20;16.67;;;;;;;8.79;46.73;99873.03;4201121;28;20432;-66
2022/03/24 06:09:48;;;;;;;24.33;16.77;;;;;;;9.26;45.68;99881.78;4199514;27;20551;-66
2022/03/24 06:11:51;;;;;;;24.20;17.60;;;;;;;9.49;44.75;99881.41;4199716;28;20746;-67
2022/03/24 06:13:53;;;;;;;24.30;16.63;;;;;;;8.65;46.58;99883.13;4188505;28;20691;-67
2022/03/24 06:15:55;;;;;;;24.97;18.00;;;;;;;9.05;45.84;99884.69;4187410;28;20311;-66
2022/03/24 06:17:57;;;;;;;23.17;17.37;;;;;;;9.09;45.42;99901.97;4189611;28;20762;-68
2022/03/24 06:20:01;;;;;;;26.63;17.57;;;;;;;9.42;45.30;99896.22;4192337;28;21102;-66
2022/03/24 06:22:04;;;;;;;24.67;18.53;;;;;;;9.73;44.53;99895.94;4189871;28;20238;-65
2022/03/24 06:24:07;;;;;;;24.63;17.93;;;;;;;9.21;45.84;99904.44;4190025;28;20247;-65
2022/03/24 06:26:09;;;;;;;22.43;17.20;;;;;;;9.35;45.58;99911.91;4188474;28;20268;-66
2022/03/24 06:28:11;;;;;;;26.33;17.83;;;;;;;9.69;44.95;99898.91;4186842;28;20317;-63
2022/03/24 06:30:14;;;;;;;25.50;17.73;;;;;;;9.60;45.39;99905.09;4187607;28;20271;-64
2022/03/24 06:32:16;;;;;;;28.00;20.00;;;;;;;8.75;47.42;99917.56;4186274;28;20243;-66
2022/03/24 06:34:17;;;;;;;26.70;19.63;;;;;;;7.55;50.73;99915.16;4191162;28;20254;-65
2022/03/24 06:36:19;;;;;;;31.93;22.03;;;;;;;8.16;49.75;99900.88;4185713;28;20288;-64
2022/03/24 06:38:21;;;;;;;30.43;22.03;;;;;;;7.17;53.17;99912.22;4185904;28;20246;-66
2022/03/24 06:40:23;;;;;;;27.03;20.30;;;;;;;6.81;54.51;99901.16;4189824;28;20251;-66
2022/03/24 06:42:24;;;;;;;30.10;22.23;;;;;;;7.31;54.01;99899.59;4185628;28;20349;-66
2022/03/24 06:44:26;;;;;;;32.33;24.00;;;;;;;7.13;54.68;99894.13;4186815;28;20228;-66
2022/03/24 06:46:28;;;;;;;29.40;22.40;;;;;;;7.41;54.20;99897.81;4186929;28;20224;-67
2022/03/24 06:48:30;;;;;;;28.07;21.40;;;;;;;8.00;51.96;99883.72;4191573;28;20686;-66
2022/03/24 06:50:32;;;;;;;29.60;22.80;;;;;;;9.43;47.57;99882.81;4183882;28;20255;-66
2022/03/24 06:52:33;;;;;;;39.73;23.67;;;;;;;9.32;47.60;99893.63;4190878;28;20234;-66
2022/03/24 06:54:35;;;;;;;33.93;23.47;;;;;;;7.88;51.48;99902.53;4202481;22;20548;-32
2022/03/24 06:56:37;;;;;;;34.97;24.87;;;;;;;9.46;47.30;99887.00;4205178;28;20226;-32
2022/03/24 06:58:40;;;;;;;32.47;22.63;;;;;;;10.17;46.03;99872.94;4196658;28;20243;-32
2022/03/24 07:00:41;;;;;;;33.67;23.20;;;;;;;10.04;45.81;99897.25;4191479;28;20234;-32
2022/03/24 07:02:45;;;;;;;32.53;23.30;;;;;;;10.19;45.49;99900.19;4199055;28;20702;-32
2022/03/24 07:04:47;;;;;;;35.17;26.30;;;;;;;8.16;51.44;99924.72;4193036;28;20284;-32
2022/03/24 07:06:49;;;;;;;29.60;21.87;;;;;;;9.16;48.94;99904.03;4190150;28;20234;-32
2022/03/24 07:08:50;;;;;;;31.50;22.53;;;;;;;9.96;46.89;99904.28;4191232;28;20236;-32
2022/03/24 07:10:52;;;;;;;29.03;21.67;;;;;;;10.36;46.09;99892.38;4192556;28;20235;-32
2022/03/24 07:12:54;;;;;;;28.30;20.57;;;;;;;10.36;45.64;99897.69;4192002;28;20239;-32
2022/03/24 07:14:55;;;;;;;30.10;20.67;;;;;;;10.13;46.07;99916.78;4189417;28;20235;-32
2022/03/24 07:16:57;;;;;;;29.10;21.23;;;;;;;10.34;45.50;99905.81;4192529;28;20231;-32
2022/03/24 07:18:59;;;;;;;29.73;21.40;;;;;;;9.50;48.37;99926.38;4194340;28;20310;-32
2022/03/24 07:21:01;;;;;;;27.00;20.47;;;;;;;10.36;46.22;99905.66;4194476;28;20605;-31
2022/03/24 07:23:04;;;;;;;28.37;20.13;;;;;;;10.37;46.66;99915.31;4193706;28;20245;-32
2022/03/24 07:25:09;;;;;;;28.27;20.90;;;;;;;10.25;46.84;99922.69;4188248;28;20247;-32
2022/03/24 07:27:11;;;;;;;28.37;20.00;;;;;;;10.79;45.99;99885.41;4200306;28;20242;-32
2022/03/24 07:29:13;;;;;;;30.33;20.20;;;;;;;10.82;45.60;99887.75;4202978;28;20231;-37
2022/03/24 07:31:16;;;;;;;26.37;19.80;;;;;;;10.58;45.64;99920.28;4200257;28;20594;-30
2022/03/24 07:33:20;;;;;;;29.93;20.30;;;;;;;10.42;45.85;99934.28;4199339;28;20245;-33
2022/03/24 07:35:24;;;;;;;24.67;19.13;;;;;;;10.24;45.94;99956.41;4192604;28;20242;-32
2022/03/24 07:37:27;;;;;;;27.40;19.70;;;;;;;10.12;46.31;99948.81;4207957;28;20230;-34
2022/03/24 07:39:29;;;;;;;28.80;21.07;;;;;;;10.13;47.11;99961.13;4200452;28;20230;-33
2022/03/24 07:41:32;;;;;;;30.93;19.90;;;;;;;10.29;47.07;99950.63;4199405;28;20232;-32
2022/03/24 07:43:34;;;;;;;27.33;19.67;;;;;;;10.13;47.32;99956.63;4194565;28;20232;-33
2022/03/24 07:45:38;;;;;;;26.27;19.47;;;;;;;10.33;47.29;99949.34;4201229;28;20245;-37
2022/03/24 07:48:09;;;;;;;26.23;18.70;;;;;;;10.27;46.78;99949.13;4201731;28;20276;-35
2022/03/24 07:50:11;;;;;;;27.93;18.27;;;;;;;10.55;46.58;99924.09;4199633;28;20238;-33
2022/03/24 07:52:14;;;;;;;26.23;19.73;;;;;;;10.31;46.96;99959.25;4191239;28;20239;-31
2022/03/24 07:54:15;;;;;;;30.63;20.80;;;;;;;10.26;47.45;99953.56;4199630;28;20249;-33
2022/03/24 07:56:21;;;;;;;27.07;19.87;;;;;;;10.68;46.58;99926.34;4190924;28;20641;-37
2022/03/24 07:58:23;;;;;;;28.27;19.60;;;;;;;10.16;47.57;99959.00;4192841;28;20235;-37
2022/03/24 08:00:25;;;;;;;25.50;18.73;;;;;;;10.16;48.39;99963.44;4200180;28;20436;-38
2022/03/24 08:02:27;;;;;;;24.77;19.10;;;;;;;10.33;47.05;99953.81;4193378;28;20661;-31
2022/03/24 08:04:29;;;;;;;24.73;18.73;;;;;;;10.53;47.25;99936.72;4190422;28;20283;-33
2022/03/24 08:06:31;;;;;;;27.07;18.83;;;;;;;10.28;47.94;99953.41;4203858;28;20223;-31
2022/03/24 08:08:33;;;;;;;26.67;19.40;;;;;;;10.42;46.62;99958.22;4199132;28;20313;-34
2022/03/24 08:10:39;;;;;;;27.03;18.67;;;;;;;10.06;47.34;99968.84;4191957;28;20235;-33
2022/03/24 08:12:41;;;;;;;28.83;19.37;;;;;;;10.37;46.51;99957.84;4198357;28;20234;-33
2022/03/24 08:14:43;;;;;;;26.03;18.97;;;;;;;10.56;46.74;99952.34;4190351;28;20238;-33
2022/03/24 08:16:45;;;;;;;29.07;18.97;;;;;;;10.81;46.32;99931.28;4198361;28;20301;-34
2022/03/24 08:18:47;;;;;;;26.77;19.23;;;;;;;10.00;48.57;99958.81;4190100;28;20757;-32
2022/03/24 08:20:51;;;;;;;23.80;19.07;;;;;;;10.44;48.24;99964.22;4191471;28;20250;-32
2022/03/24 08:22:53;;;;;;;27.50;19.40;;;;;;;10.65;47.12;99949.75;4190177;28;20239;-36
2022/03/24 08:24:54;;;;;;;27.97;20.10;;;;;;;11.21;45.84;99905.91;4190408;28;20276;-34
2022/03/24 08:26:56;;;;;;;27.23;19.00;;;;;;;11.04;46.24;99936.06;4192454;28;20246;-32
2022/03/24 08:28:58;;;;;;;24.80;18.90;;;;;;;10.92;46.16;99954.13;4201882;28;20335;-31
2022/03/24 08:30:59;;;;;;;29.47;19.63;;;;;;;11.59;45.70;99917.03;4205203;28;20288;-32
2022/03/24 08:33:01;;;;;;;29.30;19.33;;;;;;;11.75;45.48;99916.25;4207052;28;20250;-32
2022/03/24 08:35:03;;;;;;;29.43;19.13;;;;;;;11.68;45.13;99932.06;4198442;28;20297;-31
2022/03/24 08:37:05;;;;;;;29.67;19.40;;;;;;;12.04;44.75;99899.03;4182626;28;20288;-35
2022/03/24 08:39:08;;;;;;;28.90;19.60;;;;;;;11.58;45.80;99939.34;4200125;28;20238;-34
2022/03/24 08:41:09;;;;;;;25.80;18.07;;;;;;;11.49;45.36;99946.47;4206450;28;20264;-32
2022/03/24 08:43:11;;;;;;;30.07;18.17;;;;;;;11.80;44.14;99926.44;4193683;28;20823;-31
2022/03/24 08:45:15;;;;;;;25.10;18.40;;;;;;;11.79;44.57;99933.56;4199285;28;20620;-33
2022/03/24 08:47:17;;;;;;;24.03;17.63;;;;;;;11.90;44.56;99941.28;4192913;28;20292;-34
2022/03/24 08:49:19;;;;;;;28.57;18.40;;;;;;;11.60;44.05;99952.50;4207960;28;20252;-31
2022/03/24 08:51:22;;;;;;;24.03;17.43;;;;;;;12.28;43.08;99908.84;4195464;28;20702;-32
2022/03/24 08:53:24;;;;;;;26.67;18.47;;;;;;;11.49;44.54;99982.91;4204900;28;20238;-34
2022/03/24 08:55:25;;;;;;;23.03;16.63;;;;;;;11.54;44.39;99983.25;4196813;28;20622;-35
2022/03/24 08:57:27;;;;;;;25.90;17.90;;;;;;;11.77;44.22;99948.88;4188316;28;20231;-33
2022/03/24 08:59:29;;;;;;;28.27;18.23;;;;;;;11.88;44.01;99945.09;4191088;28;20224;-32
2022/03/24 09:01:31;;;;;;;27.70;19.20;;;;;;;11.97;43.85;99956.66;4190498;28;20231;-32
2022/03/24 09:03:33;;;;;;;26.13;18.77;;;;;;;12.18;43.65;99929.50;4190078;28;20281;-32
2022/03/24 09:05:35;;;;;;;26.37;17.67;;;;;;;12.48;43.14;99923.50;4190965;28;20270;-37
2022/03/24 09:07:37;;;;;;;23.03;18.07;;;;;;;12.89;43.14;99908.50;4193310;28;20596;-37
2022/03/24 09:09:40;;;;;;;23.53;17.73;;;;;;;13.12;42.52;99901.44;4190644;28;20268;-34
2022/03/24 09:11:42;;;;;;;28.87;18.53;;;;;;;12.56;43.81;99935.19;4190711;28;20235;-35
2022/03/24 09:13:43;;;;;;;26.20;18.00;;;;;;;13.03;42.76;99916.63;4190588;28;20235;-35
2022/03/24 09:15:46;;;;;;;24.80;17.93;;;;;;;13.07;42.83;99925.13;4190987;28;20234;-35
2022/03/24 09:17:48;;;;;;;26.27;17.90;;;;;;;13.12;42.76;99909.44;4190311;28;20234;-34
2022/03/24 09:19:49;;;;;;;28.43;18.47;;;;;;;13.35;42.55;99919.38;4190591;28;20231;-33
2022/03/24 09:21:51;;;;;;;25.13;17.47;;;;;;;13.71;41.20;99884.13;4194072;28;20231;-34
2022/03/24 09:23:52;;;;;;;28.93;17.90;;;;;;;13.03;42.37;99939.84;4195994;28;20740;-35
2022/03/24 09:25:55;;;;;;;27.83;18.17;;;;;;;13.71;41.36;99906.34;4190686;28;20243;-34
2022/03/24 09:28:17;;;;;;;26.77;17.70;;;;;;;13.28;43.17;99947.75;4190745;28;20780;-35